createdAt,value
2022-10-09T00:02:19.054Z,101972.59
2022-10-09T00:04:42.590Z,101982.59
2022-10-09T00:07:07.604Z,101982.59
2022-10-09T00:09:31.323Z,101988.81
2022-10-09T00:11:54.883Z,101990.16
2022-10-09T00:14:18.438Z,101996.59
2022-10-09T00:16:42.180Z,102003.78
2022-10-09T00:19:06.363Z,102003.06
2022-10-09T00:21:32.269Z,102011.09
2022-10-09T00:23:59.934Z,102011.88
2022-10-09T00:26:24.027Z,102010.72
2022-10-09T00:28:48.482Z,102016.66
2022-10-09T00:31:13.146Z,102011.72
2022-10-09T00:33:37.729Z,102018.13
2022-10-09T00:36:04.852Z,102020.09
2022-10-09T00:38:29.704Z,102026.38
2022-10-09T00:40:54.639Z,102025.66
2022-10-09T00:43:21.255Z,102037.47
2022-10-09T00:45:53.385Z,102027.56
2022-10-09T00:48:18.384Z,102028.56
2022-10-09T00:50:46.543Z,102031.00
2022-10-09T00:53:13.376Z,102035.41
2022-10-09T00:55:38.726Z,102039.13
2022-10-09T00:58:04.527Z,102041.47
2022-10-09T01:00:28.530Z,102040.88
2022-10-09T01:02:52.651Z,102048.97
2022-10-09T01:05:16.792Z,102046.66
2022-10-09T01:07:49.614Z,102048.53
2022-10-09T01:10:28.103Z,102049.63
2022-10-09T01:13:05.964Z,102058.44
2022-10-09T01:15:36.257Z,102061.97
2022-10-09T01:18:07.255Z,102057.50
2022-10-09T01:20:43.086Z,102057.78
2022-10-09T01:23:57.673Z,102056.19
2022-10-09T01:27:01.353Z,102059.16
2022-10-09T01:29:28.943Z,102060.81
2022-10-09T01:31:53.805Z,102060.09
2022-10-09T01:34:20.112Z,102054.75
2022-10-09T01:36:45.353Z,102060.38
2022-10-09T01:39:12.626Z,102067.59
2022-10-09T01:41:36.551Z,102072.22
2022-10-09T01:44:01.677Z,102070.47
2022-10-09T01:46:29.624Z,102075.91
2022-10-09T01:49:07.215Z,102072.00
2022-10-09T01:51:38.227Z,102089.09
2022-10-09T01:54:06.283Z,102087.59
2022-10-09T01:56:34.427Z,102085.69
2022-10-09T01:59:03.762Z,102089.50
2022-10-09T02:01:31.313Z,102082.53
2022-10-09T02:03:58.465Z,102086.16
2022-10-09T02:06:22.948Z,102093.22
2022-10-09T02:08:51.422Z,102089.25
2022-10-09T02:11:15.981Z,102081.97
2022-10-09T02:13:40.148Z,102088.16
2022-10-09T02:16:14.011Z,102089.03
2022-10-09T02:18:42.043Z,102090.97
2022-10-09T02:21:13.134Z,102094.88
2022-10-09T02:23:39.525Z,102093.50
2022-10-09T02:26:03.182Z,102088.28
2022-10-09T02:28:27.119Z,102095.09
2022-10-09T02:30:59.263Z,102101.53
2022-10-09T02:33:32.603Z,102097.91
2022-10-09T02:35:56.232Z,102090.56
2022-10-09T02:38:19.748Z,102089.75
2022-10-09T02:40:43.373Z,102097.00
2022-10-09T02:43:06.947Z,102096.91
2022-10-09T02:45:30.564Z,102096.84
2022-10-09T02:47:54.128Z,102104.06
2022-10-09T02:50:19.269Z,102098.72
2022-10-09T02:52:42.908Z,102100.72
2022-10-09T02:55:07.290Z,102098.97
2022-10-09T02:57:30.889Z,102102.31
2022-10-09T02:59:54.457Z,102098.19
2022-10-09T03:02:18.025Z,102105.03
2022-10-09T03:04:41.743Z,102107.47
2022-10-09T03:07:06.896Z,102112.47
2022-10-09T03:09:33.654Z,102113.59
2022-10-09T03:11:57.515Z,102114.69
2022-10-09T03:14:21.108Z,102114.81
2022-10-09T03:16:44.672Z,102116.63
2022-10-09T03:19:08.294Z,102115.53
2022-10-09T03:21:31.862Z,102118.22
2022-10-09T03:23:57.235Z,102120.88
2022-10-09T03:26:23.360Z,102117.81
2022-10-09T03:28:49.467Z,102118.03
2022-10-09T03:31:22.574Z,102116.94
2022-10-09T03:33:51.306Z,102121.28
2022-10-09T03:36:15.112Z,102124.09
2022-10-09T03:38:38.883Z,102121.53
2022-10-09T03:41:06.157Z,102127.16
2022-10-09T03:43:29.930Z,102126.41
2022-10-09T03:45:53.506Z,102124.59
2022-10-09T03:48:17.162Z,102131.88
2022-10-09T03:50:41.734Z,102135.53
2022-10-09T03:53:05.384Z,102140.19
2022-10-09T03:55:28.923Z,102134.94
2022-10-09T03:57:53.875Z,102140.56
2022-10-09T04:00:17.840Z,102142.38
2022-10-09T04:02:41.462Z,102142.31
2022-10-09T04:05:05.578Z,102148.69
2022-10-09T04:07:29.135Z,102140.84
2022-10-09T04:09:52.723Z,102145.44
2022-10-09T04:12:16.396Z,102144.53
2022-10-09T04:14:41.340Z,102142.13
2022-10-09T04:17:04.951Z,102153.44
2022-10-09T04:19:28.487Z,102149.88
2022-10-09T04:21:52.066Z,102152.44
2022-10-09T04:24:15.684Z,102158.19
2022-10-09T04:26:39.247Z,102158.94
2022-10-09T04:29:02.781Z,102158.44
2022-10-09T04:31:27.786Z,102166.50
2022-10-09T04:33:51.332Z,102167.44
2022-10-09T04:36:14.868Z,102173.72
2022-10-09T04:38:38.456Z,102170.28
2022-10-09T04:41:04.675Z,102171.47
2022-10-09T04:43:28.640Z,102156.47
2022-10-09T04:45:52.286Z,102167.22
2022-10-09T04:48:17.208Z,102168.06
2022-10-09T04:50:40.928Z,102162.00
2022-10-09T04:53:04.487Z,102168.31
2022-10-09T04:55:28.063Z,102170.19
2022-10-09T04:57:51.599Z,102172.97
2022-10-09T05:00:16.479Z,102171.13
2022-10-09T05:02:40.004Z,102172.06
2022-10-09T05:05:05.498Z,102161.50
2022-10-09T05:07:29.047Z,102174.25
2022-10-09T05:09:52.639Z,102168.16
2022-10-09T05:12:16.187Z,102166.22
2022-10-09T05:14:39.752Z,102173.38
2022-10-09T05:17:23.226Z,102174.31
2022-10-09T05:19:47.526Z,102179.75
2022-10-09T05:22:12.513Z,102188.22
2022-10-09T05:24:36.059Z,102190.13
2022-10-09T05:26:59.648Z,102190.19
2022-10-09T05:29:23.384Z,102196.25
2022-10-09T05:31:49.493Z,102198.97
2022-10-09T05:34:13.624Z,102202.69
2022-10-09T05:36:37.396Z,102191.25
2022-10-09T05:39:02.370Z,102196.25
2022-10-09T05:41:25.970Z,102192.72
2022-10-09T05:43:51.019Z,102192.72
2022-10-09T05:46:17.799Z,102207.16
2022-10-09T05:48:44.339Z,102204.44
2022-10-09T05:51:13.259Z,102215.84
2022-10-09T05:53:36.993Z,102218.66
2022-10-09T05:56:12.704Z,102216.91
2022-10-09T05:58:36.278Z,102217.59
2022-10-09T06:01:02.028Z,102221.09
2022-10-09T06:03:25.675Z,102231.84
2022-10-09T06:05:49.196Z,102231.69
2022-10-09T06:08:12.776Z,102233.19
2022-10-09T06:10:36.337Z,102241.19
2022-10-09T06:13:01.279Z,102242.09
2022-10-09T06:15:24.791Z,102238.63
2022-10-09T06:17:48.416Z,102239.44
2022-10-09T06:20:11.922Z,102246.19
2022-10-09T06:22:35.472Z,102248.63
2022-10-09T06:24:59.015Z,102241.00
2022-10-09T06:27:22.570Z,102246.91
2022-10-09T06:29:47.475Z,102249.25
2022-10-09T06:32:11.104Z,102244.22
2022-10-09T06:34:34.617Z,102244.94
2022-10-09T06:36:58.407Z,102251.38
2022-10-09T06:39:22.646Z,102248.06
2022-10-09T06:41:46.223Z,102254.28
2022-10-09T06:44:49.721Z,102259.47
2022-10-09T06:47:13.309Z,102259.09
2022-10-09T06:49:36.908Z,102249.75
2022-10-09T06:52:00.507Z,102254.06
2022-10-09T06:54:24.064Z,102258.19
2022-10-09T06:56:47.619Z,102270.59
2022-10-09T06:59:12.788Z,102269.78
2022-10-09T07:01:37.859Z,102282.97
2022-10-09T07:04:04.023Z,102274.31
2022-10-09T07:06:29.391Z,102275.91
2022-10-09T07:08:59.049Z,102277.19
2022-10-09T07:11:25.492Z,102278.38
2022-10-09T07:13:50.944Z,102288.88
2022-10-09T07:16:14.768Z,102287.75
2022-10-09T07:18:40.164Z,102280.03
2022-10-09T07:21:04.623Z,102285.16
2022-10-09T07:23:29.462Z,102282.34
2022-10-09T07:25:53.015Z,102295.03
2022-10-09T07:28:17.095Z,102290.84
2022-10-09T07:30:40.755Z,102292.59
2022-10-09T07:33:04.327Z,102292.34
2022-10-09T07:35:29.301Z,102293.00
2022-10-09T07:37:53.391Z,102297.47
2022-10-09T07:40:17.220Z,102301.66
2022-10-09T07:42:40.797Z,102297.63
2022-10-09T07:45:04.624Z,102299.13
2022-10-09T07:47:28.128Z,102302.34
2022-10-09T07:49:51.832Z,102302.25
2022-10-09T07:52:16.755Z,102303.22
2022-10-09T07:54:40.340Z,102303.63
2022-10-09T07:57:04.066Z,102306.88
2022-10-09T07:59:27.711Z,102313.28
2022-10-09T08:01:51.299Z,102307.56
2022-10-09T08:04:14.945Z,102313.44
2022-10-09T08:06:38.520Z,102310.84
2022-10-09T08:09:06.594Z,102314.34
2022-10-09T08:11:31.534Z,102309.53
2022-10-09T08:13:55.603Z,102314.03
2022-10-09T08:16:20.909Z,102322.69
2022-10-09T08:18:44.651Z,102319.88
2022-10-09T08:21:11.159Z,102311.56
2022-10-09T08:23:34.826Z,102318.16
2022-10-09T08:26:00.535Z,102323.13
2022-10-09T08:28:24.725Z,102327.34
2022-10-09T08:30:48.847Z,102327.06
2022-10-09T08:33:12.492Z,102326.53
2022-10-09T08:35:36.070Z,102323.22
2022-10-09T08:37:59.602Z,102317.09
2022-10-09T08:40:30.987Z,102321.94
2022-10-09T08:43:01.698Z,102326.66
2022-10-09T08:45:25.604Z,102325.59
2022-10-09T08:47:56.567Z,102332.56
2022-10-09T08:50:24.684Z,102327.88
2022-10-09T08:52:55.978Z,102332.28
2022-10-09T08:55:25.355Z,102329.22
2022-10-09T08:57:53.454Z,102332.34
2022-10-09T09:00:21.665Z,102323.25
2022-10-09T09:03:27.171Z,102323.69
2022-10-09T09:05:59.789Z,102318.81
2022-10-09T09:08:33.381Z,102324.28
2022-10-09T09:11:12.224Z,102321.97
2022-10-09T09:13:53.990Z,102318.16
2022-10-09T09:16:28.345Z,102323.41
2022-10-09T09:19:05.523Z,102318.59
2022-10-09T09:21:41.524Z,102315.75
2022-10-09T09:24:14.180Z,102322.00
2022-10-09T09:26:38.286Z,102315.16
2022-10-09T09:29:06.030Z,102316.75
2022-10-09T09:31:37.126Z,102308.25
2022-10-09T09:34:10.279Z,102310.59
2022-10-09T09:36:40.150Z,102312.63
2022-10-09T09:41:47.444Z,102302.28
2022-10-09T09:44:13.251Z,102306.41
2022-10-09T09:46:40.501Z,102306.13
2022-10-09T09:49:09.218Z,102302.75
2022-10-09T09:51:34.275Z,102305.22
2022-10-09T09:54:00.371Z,102303.53
2022-10-09T09:56:59.735Z,102304.03
2022-10-09T09:59:33.823Z,102305.19
2022-10-09T10:02:10.028Z,102296.59
2022-10-09T10:04:34.127Z,102298.25
2022-10-09T10:06:57.956Z,102299.72
2022-10-09T10:09:22.791Z,102297.75
2022-10-09T10:11:50.371Z,102290.50
2022-10-09T10:14:16.640Z,102294.94
2022-10-09T10:16:41.671Z,102293.53
2022-10-09T10:19:07.407Z,102298.41
2022-10-09T10:21:42.341Z,102289.97
2022-10-09T10:24:07.538Z,102287.53
2022-10-09T10:26:37.250Z,102284.63
2022-10-09T10:29:05.687Z,102284.78
2022-10-09T10:31:47.726Z,102275.19
2022-10-09T10:34:21.266Z,102280.94
2022-10-09T10:36:45.152Z,102285.19
2022-10-09T10:39:19.547Z,102279.41
2022-10-09T10:41:49.148Z,102280.09
2022-10-09T10:44:23.939Z,102277.78
2022-10-09T10:46:52.708Z,102277.19
2022-10-09T10:49:22.368Z,102273.47
2022-10-09T10:52:04.278Z,102265.88
2022-10-09T10:54:52.227Z,102269.75
2022-10-09T10:57:23.155Z,102266.31
2022-10-09T10:59:58.167Z,102262.59
2022-10-09T11:03:07.646Z,102257.28
2022-10-09T11:05:48.461Z,102251.53
2022-10-09T11:08:34.199Z,102250.09
2022-10-09T11:11:04.898Z,102249.06
2022-10-09T11:13:33.487Z,102251.34
2022-10-09T11:16:12.116Z,102245.63
2022-10-09T11:19:01.535Z,102230.75
2022-10-09T11:21:42.627Z,102236.03
2022-10-09T11:24:58.248Z,102240.59
2022-10-09T11:27:27.624Z,102221.88
2022-10-09T11:29:57.296Z,102223.13
2022-10-09T11:32:25.831Z,102227.88
2022-10-09T11:34:56.905Z,102221.00
2022-10-09T11:37:28.376Z,102220.59
2022-10-09T11:39:52.089Z,102223.28
2022-10-09T11:42:24.759Z,102212.00
2022-10-09T11:45:01.383Z,102208.97
2022-10-09T11:47:35.851Z,102210.59
2022-10-09T11:50:18.872Z,102208.53
2022-10-09T11:52:53.108Z,102201.56
2022-10-09T11:55:22.850Z,102202.09
2022-10-09T11:57:46.624Z,102204.84
2022-10-09T12:00:12.496Z,102198.66
2022-10-09T12:02:36.737Z,102193.47
2022-10-09T12:05:00.491Z,102185.19
2022-10-09T12:07:34.603Z,102187.63
2022-10-09T12:10:07.782Z,102192.19
2022-10-09T12:12:32.291Z,102191.63
2022-10-09T12:14:55.925Z,102186.00
2022-10-09T12:17:36.048Z,102186.19
2022-10-09T12:20:07.758Z,102168.84
2022-10-09T12:22:36.616Z,102175.16
2022-10-09T12:25:06.911Z,102181.63
2022-10-09T12:27:40.415Z,102179.75
2022-10-09T12:30:19.143Z,102169.59
2022-10-09T12:32:48.117Z,102174.88
2022-10-09T12:35:23.436Z,102165.97
2022-10-09T12:37:47.043Z,102161.38
2022-10-09T12:40:17.351Z,102156.66
2022-10-09T12:42:41.243Z,102153.38
2022-10-09T12:45:05.242Z,102148.25
2022-10-09T12:47:31.303Z,102145.06
2022-10-09T12:50:00.974Z,102153.06
2022-10-09T12:52:24.721Z,102148.50
2022-10-09T12:54:48.250Z,102146.06
2022-10-09T12:57:17.021Z,102141.63
2022-10-09T12:59:41.067Z,102133.81
2022-10-09T13:02:04.824Z,102133.88
2022-10-09T13:04:32.896Z,102129.03
2022-10-09T13:06:58.013Z,102132.75
2022-10-09T13:09:25.103Z,102129.84
2022-10-09T13:11:59.684Z,102133.59
2022-10-09T13:14:34.716Z,102124.28
2022-10-09T13:16:58.359Z,102124.81
2022-10-09T13:19:27.557Z,102124.50
2022-10-09T13:22:13.956Z,102122.06
2022-10-09T13:24:38.074Z,102118.91
2022-10-09T13:27:01.679Z,102119.78
2022-10-09T13:29:26.851Z,102114.22
2022-10-09T13:31:50.454Z,102110.91
2022-10-09T13:34:15.048Z,102110.28
2022-10-09T13:36:38.576Z,102107.41
2022-10-09T13:39:02.228Z,102108.00
2022-10-09T13:41:26.417Z,102099.56
2022-10-09T13:43:51.858Z,102107.53
2022-10-09T13:46:17.412Z,102102.56
2022-10-09T13:48:41.015Z,102097.88
2022-10-09T13:51:06.197Z,102099.72
2022-10-09T13:53:29.817Z,102096.25
2022-10-09T13:55:59.979Z,102095.59
2022-10-09T13:58:24.843Z,102092.09
2022-10-09T14:00:49.072Z,102101.84
2022-10-09T14:03:14.088Z,102092.78
2022-10-09T14:05:37.618Z,102093.31
2022-10-09T14:08:01.271Z,102089.06
2022-10-09T14:10:24.785Z,102091.22
2022-10-09T14:12:48.595Z,102093.81
2022-10-09T14:15:12.734Z,102088.38
2022-10-09T14:17:36.267Z,102082.16
2022-10-09T14:20:01.248Z,102079.53
2022-10-09T14:22:24.851Z,102075.41
2022-10-09T14:24:48.396Z,102071.53
2022-10-09T14:27:12.260Z,102065.84
2022-10-09T14:29:37.484Z,102069.72
2022-10-09T14:32:01.039Z,102066.34
2022-10-09T14:34:24.639Z,102058.66
2022-10-09T14:36:49.975Z,102066.94
2022-10-09T14:39:13.513Z,102057.88
2022-10-09T14:41:38.027Z,102059.41
2022-10-09T14:44:02.226Z,102054.00
2022-10-09T14:46:27.080Z,102056.03
2022-10-09T14:48:51.243Z,102056.19
2022-10-09T14:51:17.848Z,102049.75
2022-10-09T14:53:43.627Z,102052.78
2022-10-09T14:56:11.583Z,102053.50
2022-10-09T14:58:37.282Z,102052.06
2022-10-09T15:01:01.576Z,102052.25
2022-10-09T15:03:25.879Z,102053.50
2022-10-09T15:05:49.507Z,102054.41
2022-10-09T15:08:13.030Z,102050.53
2022-10-09T15:10:38.088Z,102041.94
2022-10-09T15:13:01.611Z,102043.44
2022-10-09T15:15:26.980Z,102040.13
2022-10-09T15:17:52.826Z,102038.94
2022-10-09T15:20:16.616Z,102035.63
2022-10-09T15:22:40.135Z,102031.88
2022-10-09T15:25:03.839Z,102026.84
2022-10-09T15:27:29.156Z,102024.91
2022-10-09T15:29:52.712Z,102031.25
2022-10-09T15:32:16.275Z,102020.59
2022-10-09T15:34:41.183Z,102026.13
2022-10-09T15:37:04.859Z,102022.06
2022-10-09T15:39:28.578Z,102014.00
2022-10-09T15:41:52.126Z,102016.50
2022-10-09T15:44:20.526Z,102016.94
2022-10-09T15:46:44.385Z,102011.28
2022-10-09T15:49:09.047Z,102016.28
2022-10-09T15:51:33.294Z,102023.03
2022-10-09T15:53:57.347Z,102022.94
2022-10-09T15:56:23.698Z,102022.22
2022-10-09T15:58:47.515Z,102026.38
2022-10-09T16:01:16.119Z,102030.56
2022-10-09T16:03:40.624Z,102028.59
2022-10-09T16:06:07.713Z,102025.91
2022-10-09T16:08:31.674Z,102025.03
2022-10-09T16:10:55.582Z,102019.22
2022-10-09T16:13:21.096Z,102022.28
2022-10-09T16:15:47.147Z,102024.09
2022-10-09T16:18:13.176Z,102032.03
2022-10-09T16:20:37.536Z,102024.97
2022-10-09T16:23:01.229Z,102021.00
2022-10-09T16:25:24.731Z,102026.88
2022-10-09T16:27:48.351Z,102020.19
2022-10-09T16:30:14.007Z,102017.56
2022-10-09T16:32:37.977Z,102019.13
2022-10-09T16:35:03.051Z,102024.84
2022-10-09T16:37:26.647Z,102018.19
2022-10-09T16:39:50.464Z,102027.50
2022-10-09T16:42:14.000Z,102022.56
2022-10-09T16:44:37.580Z,102023.13
2022-10-09T16:47:01.148Z,102013.94
2022-10-09T16:49:25.161Z,102016.75
2022-10-09T16:51:50.298Z,102009.00
2022-10-09T16:54:13.848Z,102017.41
2022-10-09T16:56:40.885Z,102019.56
2022-10-09T16:59:07.563Z,102004.47
2022-10-09T17:01:32.272Z,102012.00
2022-10-09T17:03:56.861Z,102004.03
2022-10-09T17:06:20.937Z,102007.88
2022-10-09T17:08:45.834Z,102006.50
2022-10-09T17:11:11.030Z,102008.50
2022-10-09T17:13:34.609Z,102010.31
2022-10-09T17:15:58.187Z,102006.72
2022-10-09T17:18:22.027Z,102000.81
2022-10-09T17:20:45.680Z,102006.50
2022-10-09T17:23:09.209Z,102013.13
2022-10-09T17:25:34.380Z,102005.47
2022-10-09T17:27:57.939Z,102009.53
2022-10-09T17:30:21.728Z,102010.91
2022-10-09T17:32:45.276Z,102001.63
2022-10-09T17:35:09.929Z,102010.94
2022-10-09T17:37:33.464Z,102013.41
2022-10-09T17:39:57.275Z,102010.94
2022-10-09T17:42:22.326Z,102006.41
2022-10-09T17:44:46.012Z,102011.34
2022-10-09T17:47:09.748Z,102015.97
2022-10-09T17:49:33.386Z,102007.69
2022-10-09T17:51:57.239Z,102006.47
2022-10-09T17:54:20.861Z,102008.66
2022-10-09T17:56:45.260Z,102008.97
2022-10-09T17:59:11.411Z,102010.78
2022-10-09T18:01:35.048Z,101998.97
2022-10-09T18:03:59.662Z,101999.53
2022-10-09T18:06:24.851Z,101999.75
2022-10-09T18:08:48.618Z,101998.19
2022-10-09T18:11:15.847Z,101995.31
2022-10-09T18:13:41.573Z,101989.84
2022-10-09T18:16:10.640Z,101996.53
2022-10-09T18:18:34.310Z,101990.75
2022-10-09T18:21:03.663Z,102000.72
2022-10-09T18:23:27.213Z,101991.31
2022-10-09T18:25:50.819Z,101991.63
2022-10-09T18:28:15.118Z,101992.75
2022-10-09T18:30:43.283Z,101985.91
2022-10-09T18:33:08.281Z,101988.69
2022-10-09T18:35:31.766Z,101990.53
2022-10-09T18:37:55.311Z,101980.13
2022-10-09T18:40:19.812Z,101984.91
2022-10-09T18:42:43.420Z,101979.81
2022-10-09T18:45:08.808Z,101974.31
2022-10-09T18:47:35.546Z,101972.59
2022-10-09T18:50:02.743Z,101976.41
2022-10-09T18:52:27.017Z,101973.13
2022-10-09T18:54:54.080Z,101973.28
2022-10-09T18:57:17.987Z,101972.97
2022-10-09T18:59:41.976Z,101972.19
2022-10-09T19:02:05.848Z,101965.94
2022-10-09T19:04:29.455Z,101963.69
2022-10-09T19:06:55.544Z,101968.63
2022-10-09T19:09:19.093Z,101959.19
2022-10-09T19:11:42.683Z,101966.53
2022-10-09T19:14:06.510Z,101957.66
2022-10-09T19:16:31.752Z,101955.22
2022-10-09T19:18:55.339Z,101951.06
2022-10-09T19:21:18.905Z,101955.94
2022-10-09T19:23:44.078Z,101955.56
2022-10-09T19:26:07.698Z,101952.47
2022-10-09T19:28:32.943Z,101946.06
2022-10-09T19:30:56.758Z,101939.66
2022-10-09T19:33:20.676Z,101946.41
2022-10-09T19:35:49.734Z,101945.16
2022-10-09T19:38:13.786Z,101940.19
2022-10-09T19:40:38.744Z,101945.63
2022-10-09T19:43:02.259Z,101941.75
2022-10-09T19:45:25.900Z,101945.13
2022-10-09T19:47:54.112Z,101941.03
2022-10-09T19:50:18.142Z,101939.22
2022-10-09T19:52:41.725Z,101931.44
2022-10-09T19:55:05.988Z,101936.53
2022-10-09T19:57:30.901Z,101933.25
2022-10-09T19:59:54.512Z,101928.75
2022-10-09T20:02:18.578Z,101927.09
2022-10-09T20:04:42.181Z,101926.31
2022-10-09T20:07:09.055Z,101925.63
2022-10-09T20:09:36.074Z,101921.03
2022-10-09T20:11:59.620Z,101921.75
2022-10-09T20:14:25.292Z,101914.81
2022-10-09T20:16:48.832Z,101918.72
2022-10-09T20:19:12.975Z,101917.72
2022-10-09T20:21:36.695Z,101916.63
2022-10-09T20:24:01.336Z,101920.16
2022-10-09T20:26:25.408Z,101919.31
2022-10-09T20:28:50.150Z,101919.72
2022-10-09T20:31:18.058Z,101921.09
2022-10-09T20:33:42.207Z,101916.50
2022-10-09T20:36:07.365Z,101913.00
2022-10-09T20:38:30.996Z,101916.19
2022-10-09T20:40:54.708Z,101913.06
2022-10-09T20:43:18.455Z,101906.44
2022-10-09T20:45:42.860Z,101916.63
2022-10-09T20:48:07.800Z,101905.28
2022-10-09T20:50:31.360Z,101906.63
2022-10-09T20:52:54.936Z,101898.47
2022-10-09T20:55:18.684Z,101902.66
2022-10-09T20:57:42.303Z,101905.94
2022-10-09T21:00:07.583Z,101902.03
2022-10-09T21:02:31.138Z,101900.56
2022-10-09T21:04:56.102Z,101903.00
2022-10-09T21:07:19.683Z,101898.38
2022-10-09T21:09:43.226Z,101893.81
2022-10-09T21:12:07.058Z,101890.03
2022-10-09T21:14:30.666Z,101890.53
2022-10-09T21:16:54.247Z,101886.47
2022-10-09T21:19:17.900Z,101879.81
2022-10-09T21:21:45.363Z,101888.38
2022-10-09T21:24:11.067Z,101878.28
2022-10-09T21:26:36.074Z,101886.56
2022-10-09T21:29:00.310Z,101882.84
2022-10-09T21:31:28.341Z,101877.75
2022-10-09T21:33:52.007Z,101872.94
2022-10-09T21:36:29.493Z,101866.19
2022-10-09T21:38:54.559Z,101865.41
2022-10-09T21:41:18.091Z,101874.13
2022-10-09T21:43:41.647Z,101873.19
2022-10-09T21:46:05.283Z,101867.03
2022-10-09T21:48:28.841Z,101866.34
2022-10-09T21:50:52.392Z,101874.81
2022-10-09T21:53:15.993Z,101873.19
2022-10-09T21:55:41.219Z,101871.00
2022-10-09T21:58:04.854Z,101869.31
2022-10-09T22:00:28.449Z,101868.94
2022-10-09T22:02:52.324Z,101864.88
2022-10-09T22:05:16.156Z,101862.56
2022-10-09T22:07:39.776Z,101873.50
2022-10-09T22:10:03.851Z,101865.84
2022-10-09T22:12:28.886Z,101867.41
2022-10-09T22:14:52.452Z,101859.59
2022-10-09T22:17:16.063Z,101856.91
2022-10-09T22:19:39.632Z,101857.50
2022-10-09T22:22:03.291Z,101856.44
2022-10-09T22:24:29.223Z,101853.19
2022-10-09T22:26:52.987Z,101847.44
2022-10-09T22:29:17.949Z,101848.31
2022-10-09T22:31:41.539Z,101842.09
2022-10-09T22:34:05.554Z,101842.09
2022-10-09T22:36:32.188Z,101836.00
2022-10-09T22:38:58.583Z,101838.66
2022-10-09T22:41:23.902Z,101835.81
2022-10-09T22:43:50.252Z,101832.03
2022-10-09T22:46:18.206Z,101829.94
2022-10-09T22:48:43.050Z,101818.16
2022-10-09T22:51:09.098Z,101825.72
2022-10-09T22:53:32.843Z,101818.91
2022-10-09T22:55:56.463Z,101820.75
2022-10-09T22:58:20.040Z,101820.38
2022-10-09T23:00:43.735Z,101810.69
2022-10-09T23:03:08.700Z,101813.84
2022-10-09T23:05:32.277Z,101809.38
2022-10-09T23:07:55.799Z,101808.50
2022-10-09T23:10:19.355Z,101802.06
2022-10-09T23:12:42.910Z,101794.69
2022-10-09T23:15:07.883Z,101803.50
2022-10-09T23:17:31.412Z,101803.66
2022-10-09T23:19:56.427Z,101800.81
2022-10-09T23:22:20.027Z,101804.19
2022-10-09T23:24:43.678Z,101797.63
2022-10-09T23:27:07.236Z,101799.78
2022-10-09T23:29:30.870Z,101795.19
2022-10-09T23:31:54.749Z,101791.06
2022-10-09T23:34:18.505Z,101799.00
2022-10-09T23:36:43.524Z,101792.19
2022-10-09T23:39:08.206Z,101790.38
2022-10-09T23:41:32.290Z,101786.56
2022-10-09T23:43:56.763Z,101788.06
2022-10-09T23:46:23.499Z,101790.06
2022-10-09T23:48:48.231Z,101779.91
2022-10-09T23:51:12.301Z,101782.31
2022-10-09T23:53:37.630Z,101778.78
2022-10-09T23:56:01.205Z,101779.16
2022-10-09T23:58:24.904Z,101772.47
